sensor_id;sensor_type;location;lat;lon;timestamp;pressure;altitude;pressure_sealevel;temperature;humidity
57847;BME280;43675;50.030;21.952;2023-03-01T00:00:23;99976.73;;;-4.97;77.53
57847;BME280;43675;50.030;21.952;2023-03-01T00:03:09;99981.43;;;-4.93;77.47
57847;BME280;43675;50.030;21.952;2023-03-01T00:05:36;99982.85;;;-4.87;77.63
57847;BME280;43675;50.030;21.952;2023-03-01T00:08:02;99982.89;;;-4.85;77.43
57847;BME280;43675;50.030;21.952;2023-03-01T00:10:29;99982.66;;;-4.84;77.59
57847;BME280;43675;50.030;21.952;2023-03-01T00:12:55;99984.56;;;-4.87;77.67
57847;BME280;43675;50.030;21.952;2023-03-01T00:15:22;99983.09;;;-4.92;77.50
57847;BME280;43675;50.030;21.952;2023-03-01T00:17:49;99978.92;;;-4.95;77.65
57847;BME280;43675;50.030;21.952;2023-03-01T00:20:15;99982.52;;;-4.97;77.60
57847;BME280;43675;50.030;21.952;2023-03-01T00:22:42;99976.04;;;-5.00;77.85
57847;BME280;43675;50.030;21.952;2023-03-01T00:25:09;99976.02;;;-5.03;77.76
57847;BME280;43675;50.030;21.952;2023-03-01T00:27:35;99970.37;;;-5.07;77.76
57847;BME280;43675;50.030;21.952;2023-03-01T00:30:02;99962.84;;;-5.13;77.73
57847;BME280;43675;50.030;21.952;2023-03-01T00:32:29;99960.11;;;-5.17;77.86
57847;BME280;43675;50.030;21.952;2023-03-01T00:34:55;99957.52;;;-5.21;77.84
57847;BME280;43675;50.030;21.952;2023-03-01T00:37:23;99957.32;;;-5.27;77.94
57847;BME280;43675;50.030;21.952;2023-03-01T00:39:50;99953.84;;;-5.33;77.79
57847;BME280;43675;50.030;21.952;2023-03-01T00:42:16;99947.25;;;-5.41;77.73
57847;BME280;43675;50.030;21.952;2023-03-01T00:44:43;99944.19;;;-5.48;77.89
57847;BME280;43675;50.030;21.952;2023-03-01T00:47:10;99938.80;;;-5.54;77.78
57847;BME280;43675;50.030;21.952;2023-03-01T00:49:36;99940.77;;;-5.59;77.84
57847;BME280;43675;50.030;21.952;2023-03-01T00:52:03;99939.79;;;-5.63;77.87
57847;BME280;43675;50.030;21.952;2023-03-01T00:54:29;99945.52;;;-5.66;78.03
57847;BME280;43675;50.030;21.952;2023-03-01T00:56:56;99945.71;;;-5.70;78.08
57847;BME280;43675;50.030;21.952;2023-03-01T00:59:22;99941.84;;;-5.72;78.01
57847;BME280;43675;50.030;21.952;2023-03-01T01:01:49;99939.59;;;-5.76;78.07
57847;BME280;43675;50.030;21.952;2023-03-01T01:04:15;99932.38;;;-5.78;78.13
57847;BME280;43675;50.030;21.952;2023-03-01T01:06:44;99932.42;;;-5.79;78.13
57847;BME280;43675;50.030;21.952;2023-03-01T01:09:14;99928.30;;;-5.80;78.06
57847;BME280;43675;50.030;21.952;2023-03-01T01:11:41;99927.48;;;-5.81;77.89
57847;BME280;43675;50.030;21.952;2023-03-01T01:14:08;99930.81;;;-5.84;77.88
57847;BME280;43675;50.030;21.952;2023-03-01T01:16:35;99926.38;;;-5.89;78.04
57847;BME280;43675;50.030;21.952;2023-03-01T01:19:02;99925.38;;;-5.93;77.90
57847;BME280;43675;50.030;21.952;2023-03-01T01:21:29;99924.04;;;-5.97;77.91
57847;BME280;43675;50.030;21.952;2023-03-01T01:23:56;99923.55;;;-6.01;77.99
57847;BME280;43675;50.030;21.952;2023-03-01T01:26:31;99927.46;;;-6.03;78.15
57847;BME280;43675;50.030;21.952;2023-03-01T01:29:00;99926.41;;;-6.03;77.97
57847;BME280;43675;50.030;21.952;2023-03-01T01:31:28;99925.39;;;-6.03;78.21
57847;BME280;43675;50.030;21.952;2023-03-01T01:33:55;99920.32;;;-6.03;78.34
57847;BME280;43675;50.030;21.952;2023-03-01T01:36:22;99915.89;;;-6.05;78.28
57847;BME280;43675;50.030;21.952;2023-03-01T01:38:49;99910.89;;;-6.06;78.33
57847;BME280;43675;50.030;21.952;2023-03-01T01:41:16;99906.89;;;-6.06;78.41
57847;BME280;43675;50.030;21.952;2023-03-01T01:43:49;99901.31;;;-6.02;78.51
57847;BME280;43675;50.030;21.952;2023-03-01T01:46:32;99902.83;;;-5.98;78.64
57847;BME280;43675;50.030;21.952;2023-03-01T01:49:02;99901.18;;;-5.93;78.54
57847;BME280;43675;50.030;21.952;2023-03-01T01:51:38;99904.02;;;-5.91;78.56
57847;BME280;43675;50.030;21.952;2023-03-01T01:54:20;99901.69;;;-5.93;78.40
57847;BME280;43675;50.030;21.952;2023-03-01T01:56:55;99895.23;;;-5.96;78.48
57847;BME280;43675;50.030;21.952;2023-03-01T01:59:24;99894.48;;;-6.02;78.35
57847;BME280;43675;50.030;21.952;2023-03-01T02:01:52;99895.98;;;-6.07;78.27
57847;BME280;43675;50.030;21.952;2023-03-01T02:04:19;99896.98;;;-6.13;78.38
57847;BME280;43675;50.030;21.952;2023-03-01T02:07:17;99898.65;;;-6.14;78.48
57847;BME280;43675;50.030;21.952;2023-03-01T02:09:48;99893.86;;;-6.16;78.50
57847;BME280;43675;50.030;21.952;2023-03-01T02:12:21;99891.42;;;-6.16;78.43
57847;BME280;43675;50.030;21.952;2023-03-01T02:14:49;99890.59;;;-6.20;78.55
57847;BME280;43675;50.030;21.952;2023-03-01T02:17:17;99888.39;;;-6.25;78.45
57847;BME280;43675;50.030;21.952;2023-03-01T02:22:30;99883.09;;;-6.34;78.27
57847;BME280;43675;50.030;21.952;2023-03-01T02:27:54;99885.84;;;-6.46;78.32
57847;BME280;43675;50.030;21.952;2023-03-01T02:30:22;99894.52;;;-6.49;78.29
57847;BME280;43675;50.030;21.952;2023-03-01T02:32:52;99890.04;;;-6.50;78.35
57847;BME280;43675;50.030;21.952;2023-03-01T02:35:20;99884.32;;;-6.47;78.58
57847;BME280;43675;50.030;21.952;2023-03-01T02:37:47;99887.62;;;-6.43;78.63
57847;BME280;43675;50.030;21.952;2023-03-01T02:40:17;99889.95;;;-6.41;78.51
57847;BME280;43675;50.030;21.952;2023-03-01T02:42:52;99888.95;;;-6.42;78.60
57847;BME280;43675;50.030;21.952;2023-03-01T02:45:20;99889.08;;;-6.41;78.65
57847;BME280;43675;50.030;21.952;2023-03-01T02:47:47;99887.72;;;-6.42;78.68
57847;BME280;43675;50.030;21.952;2023-03-01T02:50:39;99891.48;;;-6.44;78.72
57847;BME280;43675;50.030;21.952;2023-03-01T02:53:46;99892.39;;;-6.41;78.82
57847;BME280;43675;50.030;21.952;2023-03-01T02:56:19;99897.80;;;-6.32;78.84
57847;BME280;43675;50.030;21.952;2023-03-01T02:58:45;99903.29;;;-6.30;78.63
57847;BME280;43675;50.030;21.952;2023-03-01T03:01:12;99907.39;;;-6.35;78.65
57847;BME280;43675;50.030;21.952;2023-03-01T03:03:39;99913.50;;;-6.39;78.83
57847;BME280;43675;50.030;21.952;2023-03-01T03:06:06;99915.14;;;-6.40;78.89
57847;BME280;43675;50.030;21.952;2023-03-01T03:08:32;99912.61;;;-6.38;79.03
57847;BME280;43675;50.030;21.952;2023-03-01T03:10:59;99906.74;;;-6.36;79.19
57847;BME280;43675;50.030;21.952;2023-03-01T03:13:25;99901.13;;;-6.35;79.22
57847;BME280;43675;50.030;21.952;2023-03-01T03:15:52;99899.44;;;-6.36;79.11
57847;BME280;43675;50.030;21.952;2023-03-01T03:18:19;99896.61;;;-6.39;79.15
57847;BME280;43675;50.030;21.952;2023-03-01T03:20:45;99895.27;;;-6.43;79.03
57847;BME280;43675;50.030;21.952;2023-03-01T03:23:13;99897.43;;;-6.45;79.13
57847;BME280;43675;50.030;21.952;2023-03-01T03:25:40;99905.98;;;-6.42;78.99
57847;BME280;43675;50.030;21.952;2023-03-01T03:28:07;99906.71;;;-6.29;78.69
57847;BME280;43675;50.030;21.952;2023-03-01T03:30:33;99905.91;;;-6.27;78.33
57847;BME280;43675;50.030;21.952;2023-03-01T03:33:00;99905.52;;;-6.36;78.22
57847;BME280;43675;50.030;21.952;2023-03-01T03:35:29;99908.96;;;-6.45;78.36
57847;BME280;43675;50.030;21.952;2023-03-01T03:37:57;99910.30;;;-6.51;78.47
57847;BME280;43675;50.030;21.952;2023-03-01T03:40:26;99913.53;;;-6.53;78.60
57847;BME280;43675;50.030;21.952;2023-03-01T03:42:53;99912.23;;;-6.58;78.63
57847;BME280;43675;50.030;21.952;2023-03-01T03:45:20;99914.47;;;-6.61;78.68
57847;BME280;43675;50.030;21.952;2023-03-01T03:47:47;99910.66;;;-6.65;78.80
57847;BME280;43675;50.030;21.952;2023-03-01T03:50:16;99912.64;;;-6.66;78.93
57847;BME280;43675;50.030;21.952;2023-03-01T03:52:43;99905.73;;;-6.67;78.89
57847;BME280;43675;50.030;21.952;2023-03-01T03:55:11;99906.45;;;-6.68;79.01
57847;BME280;43675;50.030;21.952;2023-03-01T03:57:39;99901.95;;;-6.68;78.93
57847;BME280;43675;50.030;21.952;2023-03-01T04:00:11;99899.11;;;-6.67;78.79
57847;BME280;43675;50.030;21.952;2023-03-01T04:02:40;99902.93;;;-6.74;78.73
57847;BME280;43675;50.030;21.952;2023-03-01T04:05:08;99897.70;;;-6.77;78.82
57847;BME280;43675;50.030;21.952;2023-03-01T04:07:36;99895.64;;;-6.78;78.94
57847;BME280;43675;50.030;21.952;2023-03-01T04:10:05;99895.56;;;-6.80;78.88
57847;BME280;43675;50.030;21.952;2023-03-01T04:12:33;99893.29;;;-6.83;79.01
57847;BME280;43675;50.030;21.952;2023-03-01T04:15:01;99895.47;;;-6.85;78.82
57847;BME280;43675;50.030;21.952;2023-03-01T04:17:28;99898.16;;;-6.87;78.75
57847;BME280;43675;50.030;21.952;2023-03-01T04:19:54;99900.48;;;-6.91;78.75
57847;BME280;43675;50.030;21.952;2023-03-01T04:22:21;99899.85;;;-6.96;78.76
57847;BME280;43675;50.030;21.952;2023-03-01T04:24:47;99896.39;;;-7.00;78.87
57847;BME280;43675;50.030;21.952;2023-03-01T04:27:14;99896.35;;;-7.02;78.92
57847;BME280;43675;50.030;21.952;2023-03-01T04:29:40;99898.02;;;-7.04;78.91
57847;BME280;43675;50.030;21.952;2023-03-01T04:32:07;99903.54;;;-7.07;79.09
57847;BME280;43675;50.030;21.952;2023-03-01T04:34:33;99905.17;;;-7.08;79.15
57847;BME280;43675;50.030;21.952;2023-03-01T04:37:00;99908.50;;;-7.09;79.17
57847;BME280;43675;50.030;21.952;2023-03-01T04:39:26;99906.65;;;-7.10;79.25
57847;BME280;43675;50.030;21.952;2023-03-01T04:41:53;99910.63;;;-7.13;79.16
57847;BME280;43675;50.030;21.952;2023-03-01T04:44:20;99909.27;;;-7.14;79.24
57847;BME280;43675;50.030;21.952;2023-03-01T04:46:49;99905.68;;;-7.15;79.16
57847;BME280;43675;50.030;21.952;2023-03-01T04:49:16;99902.65;;;-7.17;79.02
57847;BME280;43675;50.030;21.952;2023-03-01T04:51:42;99896.31;;;-7.20;79.02
57847;BME280;43675;50.030;21.952;2023-03-01T04:54:09;99899.14;;;-7.24;78.86
57847;BME280;43675;50.030;21.952;2023-03-01T04:56:35;99901.96;;;-7.28;78.90
57847;BME280;43675;50.030;21.952;2023-03-01T04:59:02;99902.67;;;-7.32;78.83
57847;BME280;43675;50.030;21.952;2023-03-01T05:01:28;99902.41;;;-7.34;78.91
57847;BME280;43675;50.030;21.952;2023-03-01T05:03:55;99903.27;;;-7.34;78.98
57847;BME280;43675;50.030;21.952;2023-03-01T05:06:22;99910.10;;;-7.35;78.93
57847;BME280;43675;50.030;21.952;2023-03-01T05:08:48;99906.68;;;-7.36;79.08
57847;BME280;43675;50.030;21.952;2023-03-01T05:11:15;99909.48;;;-7.37;79.00
57847;BME280;43675;50.030;21.952;2023-03-01T05:13:41;99905.05;;;-7.39;78.95
57847;BME280;43675;50.030;21.952;2023-03-01T05:16:08;99905.14;;;-7.40;78.98
57847;BME280;43675;50.030;21.952;2023-03-01T05:18:35;99907.37;;;-7.43;78.94
57847;BME280;43675;50.030;21.952;2023-03-01T05:21:08;99903.70;;;-7.46;78.99
57847;BME280;43675;50.030;21.952;2023-03-01T05:23:35;99908.48;;;-7.48;78.93
57847;BME280;43675;50.030;21.952;2023-03-01T05:26:03;99913.36;;;-7.48;78.97
57847;BME280;43675;50.030;21.952;2023-03-01T05:28:31;99915.11;;;-7.49;78.90
57847;BME280;43675;50.030;21.952;2023-03-01T05:30:58;99921.90;;;-7.49;79.08
57847;BME280;43675;50.030;21.952;2023-03-01T05:33:25;99921.36;;;-7.48;79.08
57847;BME280;43675;50.030;21.952;2023-03-01T05:35:52;99923.41;;;-7.48;78.96
57847;BME280;43675;50.030;21.952;2023-03-01T05:38:20;99922.25;;;-7.45;79.12
57847;BME280;43675;50.030;21.952;2023-03-01T05:40:48;99920.14;;;-7.38;79.15
57847;BME280;43675;50.030;21.952;2023-03-01T05:43:16;99919.75;;;-7.30;79.12
57847;BME280;43675;50.030;21.952;2023-03-01T05:45:43;99922.30;;;-7.21;79.22
57847;BME280;43675;50.030;21.952;2023-03-01T05:48:11;99918.44;;;-7.13;79.44
57847;BME280;43675;50.030;21.952;2023-03-01T05:50:41;99923.06;;;-7.04;79.37
57847;BME280;43675;50.030;21.952;2023-03-01T05:55:36;99919.16;;;-6.85;79.55
57847;BME280;43675;50.030;21.952;2023-03-01T05:58:06;99918.64;;;-6.75;79.55
57847;BME280;43675;50.030;21.952;2023-03-01T06:00:33;99912.56;;;-6.65;79.65
57847;BME280;43675;50.030;21.952;2023-03-01T06:03:00;99914.48;;;-6.54;79.65
57847;BME280;43675;50.030;21.952;2023-03-01T06:05:28;99913.23;;;-6.44;79.64
57847;BME280;43675;50.030;21.952;2023-03-01T06:07:58;99907.95;;;-6.33;79.76
57847;BME280;43675;50.030;21.952;2023-03-01T06:10:25;99904.95;;;-6.18;79.90
57847;BME280;43675;50.030;21.952;2023-03-01T06:12:52;99900.13;;;-6.03;79.88
57847;BME280;43675;50.030;21.952;2023-03-01T06:15:19;99896.77;;;-5.92;79.82
57847;BME280;43675;50.030;21.952;2023-03-01T06:17:47;99891.22;;;-5.81;80.09
57847;BME280;43675;50.030;21.952;2023-03-01T06:20:19;99886.52;;;-5.68;80.10
57847;BME280;43675;50.030;21.952;2023-03-01T06:22:47;99888.33;;;-5.56;80.07
57847;BME280;43675;50.030;21.952;2023-03-01T06:25:16;99883.94;;;-5.43;80.16
57847;BME280;43675;50.030;21.952;2023-03-01T06:27:43;99880.22;;;-5.30;80.18
57847;BME280;43675;50.030;21.952;2023-03-01T06:30:13;99869.64;;;-5.15;80.30
57847;BME280;43675;50.030;21.952;2023-03-01T06:32:41;99863.26;;;-5.02;80.13
57847;BME280;43675;50.030;21.952;2023-03-01T06:35:12;99854.84;;;-4.90;80.15
57847;BME280;43675;50.030;21.952;2023-03-01T06:37:40;99852.89;;;-4.77;80.21
57847;BME280;43675;50.030;21.952;2023-03-01T06:40:09;99852.45;;;-4.64;80.17
57847;BME280;43675;50.030;21.952;2023-03-01T06:42:38;99850.47;;;-4.51;80.39
57847;BME280;43675;50.030;21.952;2023-03-01T06:45:07;99859.08;;;-4.37;80.28
57847;BME280;43675;50.030;21.952;2023-03-01T06:47:34;99860.35;;;-4.24;80.49
57847;BME280;43675;50.030;21.952;2023-03-01T06:50:02;99864.49;;;-4.09;80.41
57847;BME280;43675;50.030;21.952;2023-03-01T06:52:29;99864.67;;;-3.95;80.44
57847;BME280;43675;50.030;21.952;2023-03-01T06:54:56;99864.64;;;-3.80;80.52
57847;BME280;43675;50.030;21.952;2023-03-01T06:57:23;99865.43;;;-3.65;80.47
57847;BME280;43675;50.030;21.952;2023-03-01T06:59:50;99862.47;;;-3.52;80.38
57847;BME280;43675;50.030;21.952;2023-03-01T07:02:16;99862.66;;;-3.39;80.55
57847;BME280;43675;50.030;21.952;2023-03-01T07:04:43;99869.81;;;-3.24;80.57
57847;BME280;43675;50.030;21.952;2023-03-01T07:07:10;99869.17;;;-3.12;80.45
57847;BME280;43675;50.030;21.952;2023-03-01T07:09:37;99865.77;;;-2.98;80.57
57847;BME280;43675;50.030;21.952;2023-03-01T07:12:04;99864.61;;;-2.67;80.37
57847;BME280;43675;50.030;21.952;2023-03-01T07:14:30;99859.48;;;-2.46;79.97
57847;BME280;43675;50.030;21.952;2023-03-01T07:16:57;99854.54;;;-2.27;79.79
57847;BME280;43675;50.030;21.952;2023-03-01T07:19:24;99853.44;;;-2.22;79.58
57847;BME280;43675;50.030;21.952;2023-03-01T07:21:50;99858.69;;;-2.16;79.86
57847;BME280;43675;50.030;21.952;2023-03-01T07:24:19;99849.49;;;-2.10;79.93
57847;BME280;43675;50.030;21.952;2023-03-01T07:26:49;99848.30;;;-2.04;80.00
57847;BME280;43675;50.030;21.952;2023-03-01T07:29:16;99843.96;;;-1.94;79.86
57847;BME280;43675;50.030;21.952;2023-03-01T07:31:42;99840.02;;;-1.83;79.77
57847;BME280;43675;50.030;21.952;2023-03-01T07:34:10;99836.62;;;-1.75;79.71
57847;BME280;43675;50.030;21.952;2023-03-01T07:36:37;99835.03;;;-1.67;79.74
57847;BME280;43675;50.030;21.952;2023-03-01T07:39:04;99835.70;;;-1.60;79.99
57847;BME280;43675;50.030;21.952;2023-03-01T07:41:31;99828.61;;;-1.51;79.59
57847;BME280;43675;50.030;21.952;2023-03-01T07:43:59;99823.88;;;-1.42;79.32
57847;BME280;43675;50.030;21.952;2023-03-01T07:46:26;99823.45;;;-1.33;79.40
57847;BME280;43675;50.030;21.952;2023-03-01T07:48:53;99823.92;;;-1.26;79.32
57847;BME280;43675;50.030;21.952;2023-03-01T07:51:20;99819.87;;;-1.18;78.99
57847;BME280;43675;50.030;21.952;2023-03-01T07:53:47;99820.73;;;-1.11;78.69
57847;BME280;43675;50.030;21.952;2023-03-01T07:56:15;99828.66;;;-1.02;78.51
57847;BME280;43675;50.030;21.952;2023-03-01T07:58:43;99829.84;;;-0.94;78.27
57847;BME280;43675;50.030;21.952;2023-03-01T08:01:12;99830.90;;;-0.85;77.88
57847;BME280;43675;50.030;21.952;2023-03-01T08:03:39;99824.54;;;-0.77;77.31
57847;BME280;43675;50.030;21.952;2023-03-01T08:06:08;99825.05;;;-0.73;77.02
57847;BME280;43675;50.030;21.952;2023-03-01T08:08:36;99823.89;;;-0.69;76.85
57847;BME280;43675;50.030;21.952;2023-03-01T08:11:04;99827.86;;;-0.66;76.44
57847;BME280;43675;50.030;21.952;2023-03-01T08:13:32;99824.64;;;-0.63;76.14
57847;BME280;43675;50.030;21.952;2023-03-01T08:16:03;99831.54;;;-0.59;75.62
57847;BME280;43675;50.030;21.952;2023-03-01T08:18:30;99834.73;;;-0.57;75.08
57847;BME280;43675;50.030;21.952;2023-03-01T08:21:02;99833.85;;;-0.54;74.79
57847;BME280;43675;50.030;21.952;2023-03-01T08:23:29;99828.67;;;-0.51;74.75
57847;BME280;43675;50.030;21.952;2023-03-01T08:26:06;99827.16;;;-0.45;74.52
57847;BME280;43675;50.030;21.952;2023-03-01T08:28:33;99825.27;;;-0.39;74.38
57847;BME280;43675;50.030;21.952;2023-03-01T08:31:00;99822.63;;;-0.32;74.22
57847;BME280;43675;50.030;21.952;2023-03-01T08:33:27;99824.80;;;-0.26;73.68
57847;BME280;43675;50.030;21.952;2023-03-01T08:36:02;99823.70;;;-0.21;73.37
57847;BME280;43675;50.030;21.952;2023-03-01T08:38:29;99821.05;;;-0.14;73.04
57847;BME280;43675;50.030;21.952;2023-03-01T08:40:59;99821.48;;;-0.04;72.91
57847;BME280;43675;50.030;21.952;2023-03-01T08:43:26;99820.31;;;0.04;72.56
57847;BME280;43675;50.030;21.952;2023-03-01T08:45:52;99821.08;;;0.15;72.44
57847;BME280;43675;50.030;21.952;2023-03-01T08:48:19;99821.22;;;0.22;72.11
57847;BME280;43675;50.030;21.952;2023-03-01T08:50:46;99824.05;;;0.28;71.27
57847;BME280;43675;50.030;21.952;2023-03-01T08:53:12;99824.67;;;0.36;70.75
57847;BME280;43675;50.030;21.952;2023-03-01T08:55:39;99823.28;;;0.44;70.03
57847;BME280;43675;50.030;21.952;2023-03-01T08:58:05;99819.45;;;0.53;69.48
57847;BME280;43675;50.030;21.952;2023-03-01T09:00:32;99820.14;;;0.61;69.12
57847;BME280;43675;50.030;21.952;2023-03-01T09:02:58;99819.81;;;0.70;68.82
57847;BME280;43675;50.030;21.952;2023-03-01T09:05:25;99820.83;;;0.78;68.59
57847;BME280;43675;50.030;21.952;2023-03-01T09:07:52;99823.77;;;0.87;68.44
57847;BME280;43675;50.030;21.952;2023-03-01T09:10:18;99814.96;;;0.94;67.84
57847;BME280;43675;50.030;21.952;2023-03-01T09:12:45;99816.55;;;0.98;67.14
57847;BME280;43675;50.030;21.952;2023-03-01T09:15:11;99814.77;;;1.01;66.49
57847;BME280;43675;50.030;21.952;2023-03-01T09:17:38;99814.53;;;1.04;66.23
57847;BME280;43675;50.030;21.952;2023-03-01T09:20:05;99816.98;;;1.06;66.18
57847;BME280;43675;50.030;21.952;2023-03-01T09:22:35;99820.65;;;1.08;65.64
57847;BME280;43675;50.030;21.952;2023-03-01T09:25:01;99820.58;;;1.11;65.54
57847;BME280;43675;50.030;21.952;2023-03-01T09:27:28;99824.82;;;1.15;65.38
57847;BME280;43675;50.030;21.952;2023-03-01T09:29:54;99824.95;;;1.20;65.24
57847;BME280;43675;50.030;21.952;2023-03-01T09:32:21;99818.96;;;1.24;65.02
57847;BME280;43675;50.030;21.952;2023-03-01T09:34:48;99814.04;;;1.26;64.42
57847;BME280;43675;50.030;21.952;2023-03-01T09:37:14;99812.98;;;1.30;64.50
57847;BME280;43675;50.030;21.952;2023-03-01T09:39:41;99818.52;;;1.36;64.25
57847;BME280;43675;50.030;21.952;2023-03-01T09:42:11;99817.61;;;1.40;63.88
57847;BME280;43675;50.030;21.952;2023-03-01T09:47:16;99814.09;;;1.51;63.78
57847;BME280;43675;50.030;21.952;2023-03-01T09:49:53;99816.72;;;1.55;63.72
57847;BME280;43675;50.030;21.952;2023-03-01T09:53:00;99817.28;;;1.60;63.16
57847;BME280;43675;50.030;21.952;2023-03-01T09:55:36;99808.84;;;1.67;63.37
57847;BME280;43675;50.030;21.952;2023-03-01T10:00:59;99801.29;;;1.72;63.48
57847;BME280;43675;50.030;21.952;2023-03-01T10:03:39;99806.48;;;1.79;63.44
57847;BME280;43675;50.030;21.952;2023-03-01T10:06:20;99803.00;;;1.85;63.29
57847;BME280;43675;50.030;21.952;2023-03-01T10:08:56;99798.23;;;1.93;63.14
57847;BME280;43675;50.030;21.952;2023-03-01T10:11:31;99795.38;;;2.02;63.18
57847;BME280;43675;50.030;21.952;2023-03-01T10:16:57;99792.31;;;2.22;62.85
57847;BME280;43675;50.030;21.952;2023-03-01T10:22:03;99787.00;;;2.34;61.89
57847;BME280;43675;50.030;21.952;2023-03-01T10:24:34;99776.99;;;2.39;62.05
57847;BME280;43675;50.030;21.952;2023-03-01T10:27:07;99782.06;;;2.48;61.84
57847;BME280;43675;50.030;21.952;2023-03-01T10:29:48;99780.41;;;2.57;61.73
57847;BME280;43675;50.030;21.952;2023-03-01T10:32:18;99777.51;;;2.65;61.76
57847;BME280;43675;50.030;21.952;2023-03-01T10:34:44;99777.70;;;2.73;61.55
57847;BME280;43675;50.030;21.952;2023-03-01T10:37:19;99772.48;;;2.78;61.54
57847;BME280;43675;50.030;21.952;2023-03-01T10:40:03;99774.75;;;2.82;61.05
57847;BME280;43675;50.030;21.952;2023-03-01T10:42:33;99771.27;;;2.85;60.75
57847;BME280;43675;50.030;21.952;2023-03-01T10:48:17;99758.35;;;2.89;59.97
57847;BME280;43675;50.030;21.952;2023-03-01T10:50:47;99758.55;;;2.89;59.68
57847;BME280;43675;50.030;21.952;2023-03-01T10:56:12;99750.13;;;2.92;58.87
57847;BME280;43675;50.030;21.952;2023-03-01T10:58:41;99749.47;;;2.96;58.75
57847;BME280;43675;50.030;21.952;2023-03-01T11:06:34;99752.04;;;3.14;58.75
57847;BME280;43675;50.030;21.952;2023-03-01T11:09:22;99744.11;;;3.15;58.08
57847;BME280;43675;50.030;21.952;2023-03-01T11:11:57;99743.74;;;3.19;57.85
57847;BME280;43675;50.030;21.952;2023-03-01T11:14:29;99745.55;;;3.22;57.82
57847;BME280;43675;50.030;21.952;2023-03-01T11:17:04;99739.38;;;3.26;57.25
57847;BME280;43675;50.030;21.952;2023-03-01T11:19:31;99742.95;;;3.31;57.48
57847;BME280;43675;50.030;21.952;2023-03-01T11:22:05;99741.24;;;3.32;57.03
57847;BME280;43675;50.030;21.952;2023-03-01T11:24:39;99736.51;;;3.36;56.69
57847;BME280;43675;50.030;21.952;2023-03-01T11:27:19;99731.58;;;3.41;56.58
57847;BME280;43675;50.030;21.952;2023-03-01T11:32:41;99724.66;;;3.53;56.24
57847;BME280;43675;50.030;21.952;2023-03-01T11:35:22;99725.25;;;3.59;56.07
57847;BME280;43675;50.030;21.952;2023-03-01T11:46:12;99709.60;;;3.75;55.77
57847;BME280;43675;50.030;21.952;2023-03-01T12:10:33;99686.67;;;4.50;54.37
57847;BME280;43675;50.030;21.952;2023-03-01T12:19:24;99675.73;;;4.37;54.73
57847;BME280;43675;50.030;21.952;2023-03-01T12:30:17;99663.65;;;5.09;52.82
57847;BME280;43675;50.030;21.952;2023-03-01T12:33:26;99655.73;;;5.19;52.72
57847;BME280;43675;50.030;21.952;2023-03-01T12:49:55;99643.81;;;5.12;51.31
57847;BME280;43675;50.030;21.952;2023-03-01T12:55:33;99645.09;;;5.00;51.43
57847;BME280;43675;50.030;21.952;2023-03-01T13:00:37;99640.90;;;4.91;50.39
57847;BME280;43675;50.030;21.952;2023-03-01T13:08:51;99630.83;;;4.80;50.87
57847;BME280;43675;50.030;21.952;2023-03-01T13:11:22;99632.84;;;4.81;50.42
57847;BME280;43675;50.030;21.952;2023-03-01T13:13:49;99630.16;;;4.85;49.97
57847;BME280;43675;50.030;21.952;2023-03-01T13:19:29;99619.85;;;4.83;50.03
57847;BME280;43675;50.030;21.952;2023-03-01T13:21:55;99619.75;;;4.86;50.07
57847;BME280;43675;50.030;21.952;2023-03-01T13:24:38;99615.67;;;4.88;49.05
57847;BME280;43675;50.030;21.952;2023-03-01T13:29:53;99616.89;;;4.93;48.63
57847;BME280;43675;50.030;21.952;2023-03-01T13:34:49;99616.11;;;4.97;47.13
57847;BME280;43675;50.030;21.952;2023-03-01T13:37:25;99615.01;;;4.98;46.98
57847;BME280;43675;50.030;21.952;2023-03-01T13:39:52;99613.23;;;4.98;47.10
57847;BME280;43675;50.030;21.952;2023-03-01T13:42:36;99611.06;;;5.00;47.01
57847;BME280;43675;50.030;21.952;2023-03-01T13:45:05;99608.59;;;5.01;46.82
57847;BME280;43675;50.030;21.952;2023-03-01T13:47:41;99606.13;;;5.03;46.60
57847;BME280;43675;50.030;21.952;2023-03-01T13:50:18;99608.47;;;5.04;46.03
57847;BME280;43675;50.030;21.952;2023-03-01T13:52:53;99606.90;;;5.04;45.95
57847;BME280;43675;50.030;21.952;2023-03-01T13:55:25;99603.27;;;5.05;45.99
57847;BME280;43675;50.030;21.952;2023-03-01T13:57:59;99605.42;;;5.05;45.51
57847;BME280;43675;50.030;21.952;2023-03-01T14:00:35;99595.63;;;5.02;45.12
57847;BME280;43675;50.030;21.952;2023-03-01T14:03:17;99590.98;;;4.98;45.05
57847;BME280;43675;50.030;21.952;2023-03-01T14:08:29;99591.51;;;4.97;44.80
57847;BME280;43675;50.030;21.952;2023-03-01T14:19:55;99577.41;;;4.98;45.37
57847;BME280;43675;50.030;21.952;2023-03-01T14:22:35;99576.02;;;4.99;45.08
57847;BME280;43675;50.030;21.952;2023-03-01T14:25:17;99577.33;;;4.97;44.78
57847;BME280;43675;50.030;21.952;2023-03-01T14:27:52;99577.09;;;4.96;44.66
57847;BME280;43675;50.030;21.952;2023-03-01T14:30:37;99573.14;;;4.96;44.92
57847;BME280;43675;50.030;21.952;2023-03-01T14:33:19;99571.33;;;4.95;44.99
57847;BME280;43675;50.030;21.952;2023-03-01T14:38:32;99567.05;;;4.91;44.71
57847;BME280;43675;50.030;21.952;2023-03-01T14:41:04;99561.94;;;4.88;44.52
57847;BME280;43675;50.030;21.952;2023-03-01T14:43:31;99564.55;;;4.85;44.46
57847;BME280;43675;50.030;21.952;2023-03-01T14:45:59;99562.58;;;4.82;44.61
57847;BME280;43675;50.030;21.952;2023-03-01T14:48:27;99568.33;;;4.77;44.43
57847;BME280;43675;50.030;21.952;2023-03-01T14:50:55;99569.40;;;4.72;43.87
57847;BME280;43675;50.030;21.952;2023-03-01T14:53:27;99567.20;;;4.67;43.78
57847;BME280;43675;50.030;21.952;2023-03-01T14:55:59;99567.86;;;4.63;44.10
57847;BME280;43675;50.030;21.952;2023-03-01T14:58:27;99562.22;;;4.59;43.89
57847;BME280;43675;50.030;21.952;2023-03-01T15:00:57;99562.55;;;4.56;44.00
57847;BME280;43675;50.030;21.952;2023-03-01T15:03:34;99557.15;;;4.53;43.74
57847;BME280;43675;50.030;21.952;2023-03-01T15:06:02;99556.73;;;4.52;44.13
57847;BME280;43675;50.030;21.952;2023-03-01T15:08:31;99556.72;;;4.51;43.54
57847;BME280;43675;50.030;21.952;2023-03-01T15:13:40;99554.08;;;4.42;43.66